Terminal Aerodrome Forecast
Issued by NWS Caribou, ME

Home | Current Version | Previous Version | Text Only | Print | Product List | Glossary On
Versions: 1 2 3 4 5 6 7 8 9 10 11 12 13 14 15 16
000
FTUS41 KCAR 222320
TAFBGR
TAF
KBGR 222320Z 2300/2324 VRB03KT P6SM OVC025
     FM230200 09005KT 1SM -SN OVC020
     FM230800 10007KT 1SM -FZRASNPL OVC008
     FM231100 11004KT 1SM -FZRA OVC008
     FM231400 13005KT 3SM -RA OVC003 WS020/19045KT=

USA.gov is the U.S. government's official web portal to all federal, state and local government web resources and services.